sensor_id;sensor_type;location;lat;lon;timestamp;temperature;humidity
21834;DHT22;11079;51.092;3.458;2023-04-05T00:00:36;5.00;99.90
21834;DHT22;11079;51.092;3.458;2023-04-05T00:03:02;4.80;99.90
21834;DHT22;11079;51.092;3.458;2023-04-05T00:05:31;4.80;99.90
21834;DHT22;11079;51.092;3.458;2023-04-05T00:08:02;4.70;99.90
21834;DHT22;11079;51.092;3.458;2023-04-05T00:10:38;4.70;99.90
21834;DHT22;11079;51.092;3.458;2023-04-05T00:13:29;4.70;99.90
21834;DHT22;11079;51.092;3.458;2023-04-05T00:16:05;4.50;99.90
21834;DHT22;11079;51.092;3.458;2023-04-05T00:18:39;4.50;99.90
21834;DHT22;11079;51.092;3.458;2023-04-05T00:21:11;4.40;99.90
21834;DHT22;11079;51.092;3.458;2023-04-05T00:23:40;4.30;99.90
21834;DHT22;11079;51.092;3.458;2023-04-05T00:32:33;4.30;99.90
21834;DHT22;11079;51.092;3.458;2023-04-05T00:34:58;4.20;99.90
21834;DHT22;11079;51.092;3.458;2023-04-05T00:37:25;4.10;99.90
21834;DHT22;11079;51.092;3.458;2023-04-05T00:39:51;4.10;99.90
21834;DHT22;11079;51.092;3.458;2023-04-05T00:42:18;4.00;99.90
21834;DHT22;11079;51.092;3.458;2023-04-05T00:44:48;4.10;99.90
21834;DHT22;11079;51.092;3.458;2023-04-05T00:47:14;4.10;99.90
21834;DHT22;11079;51.092;3.458;2023-04-05T00:49:42;4.20;99.90
21834;DHT22;11079;51.092;3.458;2023-04-05T00:52:11;4.10;99.90
21834;DHT22;11079;51.092;3.458;2023-04-05T00:54:42;4.30;99.90
21834;DHT22;11079;51.092;3.458;2023-04-05T00:57:13;4.10;99.90
21834;DHT22;11079;51.092;3.458;2023-04-05T00:59:39;4.10;99.90
21834;DHT22;11079;51.092;3.458;2023-04-05T01:02:27;4.10;99.90
21834;DHT22;11079;51.092;3.458;2023-04-05T01:11:44;4.00;99.90
21834;DHT22;11079;51.092;3.458;2023-04-05T01:14:15;4.00;99.90
21834;DHT22;11079;51.092;3.458;2023-04-05T01:16:41;3.90;99.90
21834;DHT22;11079;51.092;3.458;2023-04-05T01:19:28;4.00;99.90
21834;DHT22;11079;51.092;3.458;2023-04-05T01:37:31;3.90;99.90
21834;DHT22;11079;51.092;3.458;2023-04-05T01:39:59;3.90;99.90
21834;DHT22;11079;51.092;3.458;2023-04-05T01:42:31;3.90;99.90
21834;DHT22;11079;51.092;3.458;2023-04-05T01:45:00;3.80;99.90
21834;DHT22;11079;51.092;3.458;2023-04-05T01:47:27;3.70;99.90
21834;DHT22;11079;51.092;3.458;2023-04-05T01:49:57;3.80;99.90
21834;DHT22;11079;51.092;3.458;2023-04-05T01:52:27;3.70;99.90
21834;DHT22;11079;51.092;3.458;2023-04-05T01:54:53;3.70;99.90
21834;DHT22;11079;51.092;3.458;2023-04-05T01:57:21;3.70;99.90
21834;DHT22;11079;51.092;3.458;2023-04-05T01:59:50;3.60;99.90
21834;DHT22;11079;51.092;3.458;2023-04-05T02:02:30;3.50;99.90
21834;DHT22;11079;51.092;3.458;2023-04-05T02:04:56;3.60;99.90
21834;DHT22;11079;51.092;3.458;2023-04-05T02:07:26;3.60;99.90
21834;DHT22;11079;51.092;3.458;2023-04-05T02:09:51;3.40;99.90
21834;DHT22;11079;51.092;3.458;2023-04-05T02:12:20;3.40;99.90
21834;DHT22;11079;51.092;3.458;2023-04-05T02:14:47;3.40;99.90
21834;DHT22;11079;51.092;3.458;2023-04-05T02:17:15;3.30;99.90
21834;DHT22;11079;51.092;3.458;2023-04-05T02:19:43;3.20;99.90
21834;DHT22;11079;51.092;3.458;2023-04-05T02:22:11;3.30;99.90
21834;DHT22;11079;51.092;3.458;2023-04-05T02:28:23;3.10;99.90
21834;DHT22;11079;51.092;3.458;2023-04-05T02:30:59;3.10;99.90
21834;DHT22;11079;51.092;3.458;2023-04-05T02:33:24;3.10;99.90
21834;DHT22;11079;51.092;3.458;2023-04-05T02:35:52;3.00;99.90
21834;DHT22;11079;51.092;3.458;2023-04-05T02:38:20;3.10;99.90
21834;DHT22;11079;51.092;3.458;2023-04-05T02:40:47;3.00;99.90
21834;DHT22;11079;51.092;3.458;2023-04-05T02:43:14;3.20;99.90
21834;DHT22;11079;51.092;3.458;2023-04-05T02:46:07;3.20;99.90
21834;DHT22;11079;51.092;3.458;2023-04-05T02:48:44;3.00;99.90
21834;DHT22;11079;51.092;3.458;2023-04-05T02:51:16;2.90;99.90
21834;DHT22;11079;51.092;3.458;2023-04-05T02:53:42;3.00;99.90
21834;DHT22;11079;51.092;3.458;2023-04-05T02:56:16;3.10;99.90
21834;DHT22;11079;51.092;3.458;2023-04-05T02:58:41;3.00;99.90
21834;DHT22;11079;51.092;3.458;2023-04-05T03:01:07;3.20;99.90
21834;DHT22;11079;51.092;3.458;2023-04-05T03:03:34;3.10;99.90
21834;DHT22;11079;51.092;3.458;2023-04-05T03:06:03;3.00;99.90
21834;DHT22;11079;51.092;3.458;2023-04-05T03:08:39;3.00;99.90
21834;DHT22;11079;51.092;3.458;2023-04-05T03:11:11;3.00;99.90
21834;DHT22;11079;51.092;3.458;2023-04-05T03:13:38;2.90;99.90
21834;DHT22;11079;51.092;3.458;2023-04-05T03:16:05;3.00;99.90
21834;DHT22;11079;51.092;3.458;2023-04-05T03:18:52;2.90;99.90
21834;DHT22;11079;51.092;3.458;2023-04-05T03:21:18;2.90;99.90
21834;DHT22;11079;51.092;3.458;2023-04-05T03:23:55;2.90;99.90
21834;DHT22;11079;51.092;3.458;2023-04-05T03:26:25;2.90;99.90
21834;DHT22;11079;51.092;3.458;2023-04-05T03:28:57;2.90;99.90
21834;DHT22;11079;51.092;3.458;2023-04-05T03:31:22;2.80;99.90
21834;DHT22;11079;51.092;3.458;2023-04-05T03:33:48;2.90;99.90
21834;DHT22;11079;51.092;3.458;2023-04-05T03:36:20;3.00;99.90
21834;DHT22;11079;51.092;3.458;2023-04-05T03:38:46;2.90;99.90
21834;DHT22;11079;51.092;3.458;2023-04-05T03:41:12;2.90;99.90
21834;DHT22;11079;51.092;3.458;2023-04-05T03:43:43;2.80;99.90
21834;DHT22;11079;51.092;3.458;2023-04-05T03:46:10;2.60;99.90
21834;DHT22;11079;51.092;3.458;2023-04-05T03:48:36;2.80;99.90
21834;DHT22;11079;51.092;3.458;2023-04-05T03:51:20;2.70;99.90
21834;DHT22;11079;51.092;3.458;2023-04-05T03:53:46;2.40;99.90
21834;DHT22;11079;51.092;3.458;2023-04-05T03:56:12;2.40;99.90
21834;DHT22;11079;51.092;3.458;2023-04-05T03:58:37;2.60;99.90
21834;DHT22;11079;51.092;3.458;2023-04-05T04:01:05;2.60;99.90
21834;DHT22;11079;51.092;3.458;2023-04-05T04:03:31;2.70;99.90
21834;DHT22;11079;51.092;3.458;2023-04-05T04:05:57;2.70;99.90
21834;DHT22;11079;51.092;3.458;2023-04-05T04:08:30;2.60;99.90
21834;DHT22;11079;51.092;3.458;2023-04-05T04:10:56;2.60;99.90
21834;DHT22;11079;51.092;3.458;2023-04-05T04:13:25;2.60;99.90
21834;DHT22;11079;51.092;3.458;2023-04-05T04:15:52;2.60;99.90
21834;DHT22;11079;51.092;3.458;2023-04-05T04:18:17;2.60;99.90
21834;DHT22;11079;51.092;3.458;2023-04-05T04:20:46;2.60;99.90
21834;DHT22;11079;51.092;3.458;2023-04-05T04:23:20;2.60;99.90
21834;DHT22;11079;51.092;3.458;2023-04-05T04:25:50;2.50;99.90
21834;DHT22;11079;51.092;3.458;2023-04-05T04:28:22;2.60;99.90
21834;DHT22;11079;51.092;3.458;2023-04-05T04:30:52;2.40;99.90
21834;DHT22;11079;51.092;3.458;2023-04-05T04:33:19;2.40;99.90
21834;DHT22;11079;51.092;3.458;2023-04-05T04:35:44;2.60;99.90
21834;DHT22;11079;51.092;3.458;2023-04-05T04:38:17;2.60;99.90
21834;DHT22;11079;51.092;3.458;2023-04-05T04:40:45;2.60;99.90
21834;DHT22;11079;51.092;3.458;2023-04-05T04:43:24;2.50;99.90
21834;DHT22;11079;51.092;3.458;2023-04-05T04:45:54;2.40;99.90
21834;DHT22;11079;51.092;3.458;2023-04-05T04:48:28;2.40;99.90
21834;DHT22;11079;51.092;3.458;2023-04-05T04:50:54;2.60;99.90
21834;DHT22;11079;51.092;3.458;2023-04-05T04:53:57;2.50;99.90
21834;DHT22;11079;51.092;3.458;2023-04-05T04:56:23;2.40;99.90
21834;DHT22;11079;51.092;3.458;2023-04-05T04:58:48;2.30;99.90
21834;DHT22;11079;51.092;3.458;2023-04-05T05:01:16;2.30;99.90
21834;DHT22;11079;51.092;3.458;2023-04-05T05:03:52;2.20;99.90
21834;DHT22;11079;51.092;3.458;2023-04-05T05:06:17;2.30;99.90
21834;DHT22;11079;51.092;3.458;2023-04-05T05:08:49;2.30;99.90
21834;DHT22;11079;51.092;3.458;2023-04-05T05:11:15;2.30;99.90
21834;DHT22;11079;51.092;3.458;2023-04-05T05:13:45;2.30;99.90
21834;DHT22;11079;51.092;3.458;2023-04-05T05:16:10;2.10;99.90
21834;DHT22;11079;51.092;3.458;2023-04-05T05:18:36;2.10;99.90
21834;DHT22;11079;51.092;3.458;2023-04-05T05:21:03;2.00;99.90
21834;DHT22;11079;51.092;3.458;2023-04-05T05:23:30;2.20;99.90
21834;DHT22;11079;51.092;3.458;2023-04-05T05:26:00;2.30;99.90
21834;DHT22;11079;51.092;3.458;2023-04-05T05:28:27;2.30;99.90
21834;DHT22;11079;51.092;3.458;2023-04-05T05:30:52;2.30;99.90
21834;DHT22;11079;51.092;3.458;2023-04-05T05:33:18;2.50;99.90
21834;DHT22;11079;51.092;3.458;2023-04-05T05:35:49;2.50;99.90
21834;DHT22;11079;51.092;3.458;2023-04-05T05:38:17;2.60;99.90
21834;DHT22;11079;51.092;3.458;2023-04-05T05:41:16;2.70;99.90
21834;DHT22;11079;51.092;3.458;2023-04-05T05:43:35;2.80;99.90
21834;DHT22;11079;51.092;3.458;2023-04-05T05:46:08;3.10;99.90
21834;DHT22;11079;51.092;3.458;2023-04-05T05:48:41;3.60;99.90
21834;DHT22;11079;51.092;3.458;2023-04-05T05:51:32;4.20;99.90
21834;DHT22;11079;51.092;3.458;2023-04-05T05:53:59;4.90;99.90
21834;DHT22;11079;51.092;3.458;2023-04-05T05:56:25;5.60;99.90
21834;DHT22;11079;51.092;3.458;2023-04-05T05:58:51;5.90;99.90
21834;DHT22;11079;51.092;3.458;2023-04-05T06:01:17;6.60;99.90
21834;DHT22;11079;51.092;3.458;2023-04-05T06:03:47;7.10;99.90
21834;DHT22;11079;51.092;3.458;2023-04-05T06:06:32;7.70;99.90
21834;DHT22;11079;51.092;3.458;2023-04-05T06:08:59;8.30;99.90
21834;DHT22;11079;51.092;3.458;2023-04-05T06:11:27;8.90;99.90
21834;DHT22;11079;51.092;3.458;2023-04-05T06:13:56;9.50;99.90
21834;DHT22;11079;51.092;3.458;2023-04-05T06:16:23;10.10;99.90
21834;DHT22;11079;51.092;3.458;2023-04-05T06:18:48;10.60;99.90
21834;DHT22;11079;51.092;3.458;2023-04-05T06:21:14;11.20;99.90
21834;DHT22;11079;51.092;3.458;2023-04-05T06:23:43;11.90;99.90
21834;DHT22;11079;51.092;3.458;2023-04-05T06:26:18;12.40;99.90
21834;DHT22;11079;51.092;3.458;2023-04-05T06:28:48;12.70;99.90
21834;DHT22;11079;51.092;3.458;2023-04-05T06:31:14;12.90;99.90
21834;DHT22;11079;51.092;3.458;2023-04-05T06:33:41;13.40;99.90
21834;DHT22;11079;51.092;3.458;2023-04-05T06:36:07;13.90;99.90
21834;DHT22;11079;51.092;3.458;2023-04-05T06:38:34;14.30;99.90
21834;DHT22;11079;51.092;3.458;2023-04-05T06:41:01;14.90;99.90
21834;DHT22;11079;51.092;3.458;2023-04-05T06:43:28;15.30;99.90
21834;DHT22;11079;51.092;3.458;2023-04-05T06:45:57;15.50;99.90
21834;DHT22;11079;51.092;3.458;2023-04-05T06:48:29;15.60;99.90
21834;DHT22;11079;51.092;3.458;2023-04-05T06:50:59;15.70;99.90
21834;DHT22;11079;51.092;3.458;2023-04-05T06:53:27;15.80;99.90
21834;DHT22;11079;51.092;3.458;2023-04-05T06:55:57;15.80;99.90
21834;DHT22;11079;51.092;3.458;2023-04-05T06:58:24;16.00;99.90
21834;DHT22;11079;51.092;3.458;2023-04-05T07:00:51;16.60;99.90
21834;DHT22;11079;51.092;3.458;2023-04-05T07:03:20;17.20;99.90
21834;DHT22;11079;51.092;3.458;2023-04-05T07:08:18;18.50;99.90
21834;DHT22;11079;51.092;3.458;2023-04-05T07:10:44;19.20;99.90
21834;DHT22;11079;51.092;3.458;2023-04-05T07:13:10;20.40;99.90
21834;DHT22;11079;51.092;3.458;2023-04-05T07:15:35;21.40;99.90
21834;DHT22;11079;51.092;3.458;2023-04-05T07:18:02;22.10;99.90
21834;DHT22;11079;51.092;3.458;2023-04-05T07:20:28;22.70;99.50
21834;DHT22;11079;51.092;3.458;2023-04-05T07:22:53;23.10;97.70
21834;DHT22;11079;51.092;3.458;2023-04-05T07:25:19;23.70;95.20
21834;DHT22;11079;51.092;3.458;2023-04-05T07:27:45;24.00;93.00
21834;DHT22;11079;51.092;3.458;2023-04-05T07:30:11;24.30;91.30
21834;DHT22;11079;51.092;3.458;2023-04-05T07:32:37;24.80;89.00
21834;DHT22;11079;51.092;3.458;2023-04-05T07:35:02;25.30;87.00
21834;DHT22;11079;51.092;3.458;2023-04-05T07:37:28;26.00;83.00
21834;DHT22;11079;51.092;3.458;2023-04-05T07:39:54;26.20;77.20
21834;DHT22;11079;51.092;3.458;2023-04-05T07:42:20;26.20;74.70
21834;DHT22;11079;51.092;3.458;2023-04-05T07:44:46;26.30;73.80
21834;DHT22;11079;51.092;3.458;2023-04-05T07:47:11;26.40;72.40
21834;DHT22;11079;51.092;3.458;2023-04-05T07:49:37;26.90;69.30
21834;DHT22;11079;51.092;3.458;2023-04-05T07:52:03;27.30;67.50
21834;DHT22;11079;51.092;3.458;2023-04-05T07:54:32;27.40;66.50
21834;DHT22;11079;51.092;3.458;2023-04-05T07:56:58;27.60;63.10
21834;DHT22;11079;51.092;3.458;2023-04-05T07:59:25;27.70;59.20
21834;DHT22;11079;51.092;3.458;2023-04-05T08:01:51;27.50;57.00
21834;DHT22;11079;51.092;3.458;2023-04-05T08:04:18;27.10;57.00
21834;DHT22;11079;51.092;3.458;2023-04-05T08:06:49;27.50;56.70
21834;DHT22;11079;51.092;3.458;2023-04-05T08:09:14;28.30;55.50
21834;DHT22;11079;51.092;3.458;2023-04-05T08:11:48;28.30;54.40
21834;DHT22;11079;51.092;3.458;2023-04-05T08:14:13;28.40;53.50
21834;DHT22;11079;51.092;3.458;2023-04-05T08:16:39;27.90;52.80
21834;DHT22;11079;51.092;3.458;2023-04-05T08:19:04;27.50;52.50
21834;DHT22;11079;51.092;3.458;2023-04-05T08:21:30;27.70;52.30
21834;DHT22;11079;51.092;3.458;2023-04-05T08:23:56;27.80;52.90
21834;DHT22;11079;51.092;3.458;2023-04-05T08:26:22;28.10;52.10
21834;DHT22;11079;51.092;3.458;2023-04-05T08:28:48;27.80;49.40
21834;DHT22;11079;51.092;3.458;2023-04-05T08:31:14;27.40;51.00
21834;DHT22;11079;51.092;3.458;2023-04-05T08:33:39;28.00;51.10
21834;DHT22;11079;51.092;3.458;2023-04-05T08:36:09;26.50;52.80
21834;DHT22;11079;51.092;3.458;2023-04-05T08:38:35;26.70;53.20
21834;DHT22;11079;51.092;3.458;2023-04-05T08:41:11;27.00;50.90
21834;DHT22;11079;51.092;3.458;2023-04-05T08:43:59;27.50;50.60
21834;DHT22;11079;51.092;3.458;2023-04-05T08:46:29;27.70;48.30
21834;DHT22;11079;51.092;3.458;2023-04-05T08:48:56;27.30;49.60
21834;DHT22;11079;51.092;3.458;2023-04-05T08:51:24;26.80;49.80
21834;DHT22;11079;51.092;3.458;2023-04-05T08:53:51;26.40;50.00
21834;DHT22;11079;51.092;3.458;2023-04-05T08:56:24;25.90;49.90
21834;DHT22;11079;51.092;3.458;2023-04-05T08:59:11;25.10;51.50
21834;DHT22;11079;51.092;3.458;2023-04-05T09:01:40;25.50;51.00
21834;DHT22;11079;51.092;3.458;2023-04-05T09:04:13;25.80;50.60
21834;DHT22;11079;51.092;3.458;2023-04-05T09:06:38;25.10;50.70
21834;DHT22;11079;51.092;3.458;2023-04-05T09:09:08;25.70;51.60
21834;DHT22;11079;51.092;3.458;2023-04-05T09:11:34;26.20;50.40
21834;DHT22;11079;51.092;3.458;2023-04-05T09:14:04;25.40;50.00
21834;DHT22;11079;51.092;3.458;2023-04-05T09:16:38;26.20;50.30
21834;DHT22;11079;51.092;3.458;2023-04-05T09:19:04;26.80;50.00
21834;DHT22;11079;51.092;3.458;2023-04-05T09:22:00;26.80;49.90
21834;DHT22;11079;51.092;3.458;2023-04-05T09:24:40;27.20;49.40
21834;DHT22;11079;51.092;3.458;2023-04-05T09:29:38;28.10;49.10
21834;DHT22;11079;51.092;3.458;2023-04-05T09:32:05;28.20;48.30
21834;DHT22;11079;51.092;3.458;2023-04-05T09:34:32;27.10;49.00
21834;DHT22;11079;51.092;3.458;2023-04-05T09:36:58;26.20;49.80
21834;DHT22;11079;51.092;3.458;2023-04-05T09:39:31;26.30;49.00
21834;DHT22;11079;51.092;3.458;2023-04-05T09:42:10;26.50;48.00
21834;DHT22;11079;51.092;3.458;2023-04-05T09:45:00;27.80;49.60
21834;DHT22;11079;51.092;3.458;2023-04-05T09:47:28;28.70;48.80
21834;DHT22;11079;51.092;3.458;2023-04-05T09:52:41;29.00;47.00
21834;DHT22;11079;51.092;3.458;2023-04-05T09:55:07;27.90;46.60
21834;DHT22;11079;51.092;3.458;2023-04-05T09:57:35;28.60;47.70
21834;DHT22;11079;51.092;3.458;2023-04-05T10:00:00;29.20;48.90
21834;DHT22;11079;51.092;3.458;2023-04-05T10:02:38;29.00;47.40
21834;DHT22;11079;51.092;3.458;2023-04-05T10:05:08;28.50;45.30
21834;DHT22;11079;51.092;3.458;2023-04-05T10:07:38;29.10;45.20
21834;DHT22;11079;51.092;3.458;2023-04-05T10:10:04;29.60;46.30
21834;DHT22;11079;51.092;3.458;2023-04-05T10:12:31;30.30;45.30
21834;DHT22;11079;51.092;3.458;2023-04-05T10:14:58;30.00;45.00
21834;DHT22;11079;51.092;3.458;2023-04-05T10:17:27;30.20;43.60
21834;DHT22;11079;51.092;3.458;2023-04-05T10:20:14;29.30;45.30
21834;DHT22;11079;51.092;3.458;2023-04-05T10:28:03;30.30;44.40
21834;DHT22;11079;51.092;3.458;2023-04-05T10:30:34;30.10;45.00
21834;DHT22;11079;51.092;3.458;2023-04-05T10:36:01;29.50;43.30
21834;DHT22;11079;51.092;3.458;2023-04-05T10:38:28;29.50;43.80
21834;DHT22;11079;51.092;3.458;2023-04-05T10:41:09;29.50;43.60
21834;DHT22;11079;51.092;3.458;2023-04-05T10:43:38;30.00;43.30
21834;DHT22;11079;51.092;3.458;2023-04-05T10:46:06;30.90;42.80
21834;DHT22;11079;51.092;3.458;2023-04-05T10:48:47;30.40;44.30
21834;DHT22;11079;51.092;3.458;2023-04-05T10:51:16;30.80;44.10
21834;DHT22;11079;51.092;3.458;2023-04-05T10:53:43;30.30;44.20
21834;DHT22;11079;51.092;3.458;2023-04-05T10:56:11;31.20;43.20
21834;DHT22;11079;51.092;3.458;2023-04-05T10:58:37;31.10;41.90
21834;DHT22;11079;51.092;3.458;2023-04-05T11:01:05;30.50;42.30
21834;DHT22;11079;51.092;3.458;2023-04-05T11:06:33;26.00;44.20
21834;DHT22;11079;51.092;3.458;2023-04-05T11:09:20;26.60;46.50
21834;DHT22;11079;51.092;3.458;2023-04-05T11:11:48;26.70;46.90
21834;DHT22;11079;51.092;3.458;2023-04-05T11:14:35;27.30;45.80
21834;DHT22;11079;51.092;3.458;2023-04-05T11:17:02;27.90;45.00
21834;DHT22;11079;51.092;3.458;2023-04-05T11:22:12;28.10;44.50
21834;DHT22;11079;51.092;3.458;2023-04-05T11:24:59;27.70;45.10
21834;DHT22;11079;51.092;3.458;2023-04-05T11:27:59;26.40;45.00
21834;DHT22;11079;51.092;3.458;2023-04-05T11:30:47;26.00;46.30
21834;DHT22;11079;51.092;3.458;2023-04-05T11:36:07;26.70;48.00
21834;DHT22;11079;51.092;3.458;2023-04-05T11:38:35;27.50;44.60
21834;DHT22;11079;51.092;3.458;2023-04-05T11:41:15;27.70;45.60
21834;DHT22;11079;51.092;3.458;2023-04-05T11:43:48;27.90;45.40
21834;DHT22;11079;51.092;3.458;2023-04-05T11:46:17;27.70;44.10
21834;DHT22;11079;51.092;3.458;2023-04-05T11:48:48;27.40;47.30
21834;DHT22;11079;51.092;3.458;2023-04-05T11:51:15;27.70;48.60
21834;DHT22;11079;51.092;3.458;2023-04-05T11:53:45;28.30;48.30
21834;DHT22;11079;51.092;3.458;2023-04-05T11:56:11;27.20;44.80
21834;DHT22;11079;51.092;3.458;2023-04-05T11:58:40;26.60;46.70
21834;DHT22;11079;51.092;3.458;2023-04-05T12:01:08;26.80;44.90
21834;DHT22;11079;51.092;3.458;2023-04-05T12:03:35;26.80;45.00
21834;DHT22;11079;51.092;3.458;2023-04-05T12:06:03;27.50;44.10
21834;DHT22;11079;51.092;3.458;2023-04-05T12:08:45;26.50;44.00
21834;DHT22;11079;51.092;3.458;2023-04-05T12:11:33;27.30;44.00
21834;DHT22;11079;51.092;3.458;2023-04-05T12:14:03;28.00;43.70
21834;DHT22;11079;51.092;3.458;2023-04-05T12:16:29;28.80;44.60
21834;DHT22;11079;51.092;3.458;2023-04-05T12:18:56;29.50;43.90
21834;DHT22;11079;51.092;3.458;2023-04-05T12:21:22;29.50;45.00
21834;DHT22;11079;51.092;3.458;2023-04-05T12:23:50;29.30;45.80
21834;DHT22;11079;51.092;3.458;2023-04-05T12:26:16;29.70;44.60
21834;DHT22;11079;51.092;3.458;2023-04-05T12:29:11;28.50;42.60
21834;DHT22;11079;51.092;3.458;2023-04-05T12:31:43;27.20;44.30
21834;DHT22;11079;51.092;3.458;2023-04-05T12:34:11;26.60;44.60
21834;DHT22;11079;51.092;3.458;2023-04-05T12:36:44;27.00;45.40
21834;DHT22;11079;51.092;3.458;2023-04-05T12:39:28;26.50;45.60
21834;DHT22;11079;51.092;3.458;2023-04-05T12:42:00;27.10;46.30
21834;DHT22;11079;51.092;3.458;2023-04-05T12:44:30;27.40;46.40
21834;DHT22;11079;51.092;3.458;2023-04-05T12:47:02;27.50;44.20
21834;DHT22;11079;51.092;3.458;2023-04-05T12:49:36;27.50;44.60
21834;DHT22;11079;51.092;3.458;2023-04-05T12:52:29;27.90;46.80
21834;DHT22;11079;51.092;3.458;2023-04-05T12:54:56;28.10;46.30
21834;DHT22;11079;51.092;3.458;2023-04-05T12:57:58;28.80;44.50
21834;DHT22;11079;51.092;3.458;2023-04-05T13:00:42;28.70;43.70
21834;DHT22;11079;51.092;3.458;2023-04-05T13:03:15;26.90;45.20
21834;DHT22;11079;51.092;3.458;2023-04-05T13:05:41;27.20;46.00
21834;DHT22;11079;51.092;3.458;2023-04-05T13:08:07;27.10;46.00
21834;DHT22;11079;51.092;3.458;2023-04-05T13:10:36;27.40;45.30
21834;DHT22;11079;51.092;3.458;2023-04-05T13:13:01;27.00;45.20
21834;DHT22;11079;51.092;3.458;2023-04-05T13:15:28;27.10;44.70
21834;DHT22;11079;51.092;3.458;2023-04-05T13:18:00;27.20;44.90
21834;DHT22;11079;51.092;3.458;2023-04-05T13:20:26;27.80;44.10
21834;DHT22;11079;51.092;3.458;2023-04-05T13:22:52;28.60;45.10
21834;DHT22;11079;51.092;3.458;2023-04-05T13:25:17;28.70;44.70
21834;DHT22;11079;51.092;3.458;2023-04-05T13:27:43;27.70;43.60
21834;DHT22;11079;51.092;3.458;2023-04-05T13:30:09;27.00;45.70
21834;DHT22;11079;51.092;3.458;2023-04-05T13:32:39;25.70;45.60
21834;DHT22;11079;51.092;3.458;2023-04-05T13:35:08;25.50;46.00
21834;DHT22;11079;51.092;3.458;2023-04-05T13:37:38;25.20;45.60
21834;DHT22;11079;51.092;3.458;2023-04-05T13:40:11;25.50;45.20
21834;DHT22;11079;51.092;3.458;2023-04-05T13:42:40;25.80;46.20
21834;DHT22;11079;51.092;3.458;2023-04-05T13:45:06;26.00;46.30
21834;DHT22;11079;51.092;3.458;2023-04-05T13:47:32;25.60;45.30
21834;DHT22;11079;51.092;3.458;2023-04-05T13:49:58;25.10;47.10
21834;DHT22;11079;51.092;3.458;2023-04-05T13:52:23;24.90;46.50
21834;DHT22;11079;51.092;3.458;2023-04-05T13:54:50;25.30;45.70
21834;DHT22;11079;51.092;3.458;2023-04-05T13:57:16;24.60;47.20
21834;DHT22;11079;51.092;3.458;2023-04-05T13:59:41;24.80;48.30
21834;DHT22;11079;51.092;3.458;2023-04-05T14:02:07;25.50;47.10
21834;DHT22;11079;51.092;3.458;2023-04-05T14:04:47;25.10;46.90
21834;DHT22;11079;51.092;3.458;2023-04-05T14:07:13;25.70;48.30
21834;DHT22;11079;51.092;3.458;2023-04-05T14:09:39;25.30;47.50
21834;DHT22;11079;51.092;3.458;2023-04-05T14:12:09;24.80;46.10
21834;DHT22;11079;51.092;3.458;2023-04-05T14:14:35;24.40;46.20
21834;DHT22;11079;51.092;3.458;2023-04-05T14:17:04;24.30;48.40
21834;DHT22;11079;51.092;3.458;2023-04-05T14:19:31;24.60;47.80
21834;DHT22;11079;51.092;3.458;2023-04-05T14:22:00;24.20;47.20
21834;DHT22;11079;51.092;3.458;2023-04-05T14:24:27;23.80;47.10
21834;DHT22;11079;51.092;3.458;2023-04-05T14:26:56;24.10;47.20
21834;DHT22;11079;51.092;3.458;2023-04-05T14:29:21;23.10;47.30
21834;DHT22;11079;51.092;3.458;2023-04-05T14:31:48;23.80;47.00
21834;DHT22;11079;51.092;3.458;2023-04-05T14:34:14;23.50;47.70
21834;DHT22;11079;51.092;3.458;2023-04-05T14:36:40;24.10;48.00
21834;DHT22;11079;51.092;3.458;2023-04-05T14:39:05;23.50;45.90
21834;DHT22;11079;51.092;3.458;2023-04-05T14:41:32;23.40;47.60
21834;DHT22;11079;51.092;3.458;2023-04-05T14:43:58;23.00;48.20
21834;DHT22;11079;51.092;3.458;2023-04-05T14:46:25;22.50;50.50
21834;DHT22;11079;51.092;3.458;2023-04-05T14:48:50;22.90;51.60
21834;DHT22;11079;51.092;3.458;2023-04-05T14:51:19;22.10;51.00
21834;DHT22;11079;51.092;3.458;2023-04-05T14:53:48;22.20;50.30
21834;DHT22;11079;51.092;3.458;2023-04-05T14:56:14;21.20;50.30
21834;DHT22;11079;51.092;3.458;2023-04-05T14:58:42;20.30;51.20
21834;DHT22;11079;51.092;3.458;2023-04-05T15:01:09;19.70;55.00
21834;DHT22;11079;51.092;3.458;2023-04-05T15:03:36;18.90;52.70
21834;DHT22;11079;51.092;3.458;2023-04-05T15:06:03;18.80;53.10
21834;DHT22;11079;51.092;3.458;2023-04-05T15:08:29;18.80;55.00
21834;DHT22;11079;51.092;3.458;2023-04-05T15:10:54;18.40;56.10
21834;DHT22;11079;51.092;3.458;2023-04-05T15:13:20;18.10;57.20
21834;DHT22;11079;51.092;3.458;2023-04-05T15:15:48;18.00;57.60
21834;DHT22;11079;51.092;3.458;2023-04-05T15:18:14;17.70;57.00
21834;DHT22;11079;51.092;3.458;2023-04-05T15:20:39;17.50;57.10
21834;DHT22;11079;51.092;3.458;2023-04-05T15:23:05;17.70;56.30
21834;DHT22;11079;51.092;3.458;2023-04-05T15:25:31;17.60;55.80
21834;DHT22;11079;51.092;3.458;2023-04-05T15:27:57;17.50;55.80
21834;DHT22;11079;51.092;3.458;2023-04-05T15:30:24;16.90;57.60
21834;DHT22;11079;51.092;3.458;2023-04-05T15:32:52;17.00;58.40
21834;DHT22;11079;51.092;3.458;2023-04-05T15:35:17;17.00;58.40
21834;DHT22;11079;51.092;3.458;2023-04-05T15:37:43;16.90;58.70
21834;DHT22;11079;51.092;3.458;2023-04-05T15:40:09;16.80;59.30
21834;DHT22;11079;51.092;3.458;2023-04-05T15:42:35;16.80;58.20
21834;DHT22;11079;51.092;3.458;2023-04-05T15:45:01;16.90;59.30
21834;DHT22;11079;51.092;3.458;2023-04-05T15:47:26;16.60;60.40
21834;DHT22;11079;51.092;3.458;2023-04-05T15:49:52;16.30;61.20
21834;DHT22;11079;51.092;3.458;2023-04-05T15:52:17;16.10;62.20
21834;DHT22;11079;51.092;3.458;2023-04-05T15:54:43;16.00;62.40
21834;DHT22;11079;51.092;3.458;2023-04-05T15:57:10;15.80;63.00
21834;DHT22;11079;51.092;3.458;2023-04-05T15:59:35;15.80;61.00
21834;DHT22;11079;51.092;3.458;2023-04-05T16:02:03;15.40;60.60
21834;DHT22;11079;51.092;3.458;2023-04-05T16:04:29;15.10;62.50
21834;DHT22;11079;51.092;3.458;2023-04-05T16:06:56;15.20;63.70
21834;DHT22;11079;51.092;3.458;2023-04-05T16:09:22;15.20;63.50
21834;DHT22;11079;51.092;3.458;2023-04-05T16:11:48;15.30;63.40
21834;DHT22;11079;51.092;3.458;2023-04-05T16:14:13;15.40;62.20
21834;DHT22;11079;51.092;3.458;2023-04-05T16:16:39;15.50;62.90
21834;DHT22;11079;51.092;3.458;2023-04-05T16:19:06;15.40;65.20
21834;DHT22;11079;51.092;3.458;2023-04-05T16:21:32;15.50;65.70
21834;DHT22;11079;51.092;3.458;2023-04-05T16:23:58;15.50;64.90
21834;DHT22;11079;51.092;3.458;2023-04-05T16:26:28;15.20;64.70
21834;DHT22;11079;51.092;3.458;2023-04-05T16:28:54;14.90;65.60
21834;DHT22;11079;51.092;3.458;2023-04-05T16:31:20;14.90;66.20
21834;DHT22;11079;51.092;3.458;2023-04-05T16:33:46;15.10;67.00
21834;DHT22;11079;51.092;3.458;2023-04-05T16:36:11;14.80;66.40
21834;DHT22;11079;51.092;3.458;2023-04-05T16:38:37;14.70;68.50
21834;DHT22;11079;51.092;3.458;2023-04-05T16:41:05;14.50;68.80
21834;DHT22;11079;51.092;3.458;2023-04-05T16:43:31;14.50;69.30
21834;DHT22;11079;51.092;3.458;2023-04-05T16:45:56;14.40;68.90
21834;DHT22;11079;51.092;3.458;2023-04-05T16:48:22;14.30;69.70